Portada
METAR-TAF:

METAR-TAF

Aeroports :

Barnaül, Rússia

latitud: 53-26N, longitud: 083-31E, altitud: 252 m

Observació

L'informe es va fer fa 27 minuts, a les 00:30 UTC
Vent calma
Temperatura 17°C
Humitat 94%
Pressió 1008 hPa
Visibilitat: 7000 m
Cel ennuvolat a una alçada de 4000 ft

METAR: UNBB 130030Z 00000MPS 7000 BKN040 17/16 Q1008 R24/290155 NOSIG RMK QFE734

Hora: 07:57 (00:57 UTC)

Pronòstic

L'informe es va fer fa 1 hora i 11 minuts, a les 23:46 UTC
Pronòstic vàlid del 12 a les 23 UTC al 13 a les 24 UTC
Vent 6 kt del Nord/Nord-Oest amb ràfegues de 16 kt
Visibilitat: 6000 m
Cel ennuvolat a una alçada de 1600 ft, Cumulonimbus.
xàfecs de pluja
Temporalment
l' 13 a les 00 UTC al 13 a les 12 UTC
Cel ennuvolat a una alçada de 1000 ft, Cumulonimbus.
tempesta, pluja

TAF: UNBB 122346Z 1223/1324 34003G08MPS 6000 -SHRA BKN016CB TEMPO 1300/1312 -TSRA BKN010CB

Observacions i pronòstics meteorològics de més de 4000 aeroports (METAR i TAF).

Les estacions disponibles són els punts grocs i vermells al mapa.

Posi el ratolí al punt desitjat per veure el nom de l'estació.

Feu clic per veure les observacions i els pronòstics meteorològics.

Per canviar el mapa: feu clic els botons verds amb una creu de color negre per apropar; al botó verd amb un guió per allunyar la imatge; o en les fletxes verdes per a mapes adjacents.


METAR-TAF: